sensor_id;sensor_type;location;lat;lon;timestamp;P1;durP1;ratioP1;P2;durP2;ratioP2
10277;SDS011;5184;51.376;7.148;2024-03-08T00:00:21;21.60;;;15.23;;
10277;SDS011;5184;51.376;7.148;2024-03-08T00:02:47;20.43;;;14.97;;
10277;SDS011;5184;51.376;7.148;2024-03-08T00:05:14;19.70;;;14.63;;
10277;SDS011;5184;51.376;7.148;2024-03-08T00:07:41;21.60;;;14.60;;
10277;SDS011;5184;51.376;7.148;2024-03-08T00:10:09;18.67;;;14.87;;
10277;SDS011;5184;51.376;7.148;2024-03-08T00:12:39;21.07;;;14.30;;
10277;SDS011;5184;51.376;7.148;2024-03-08T00:15:09;22.17;;;14.90;;
10277;SDS011;5184;51.376;7.148;2024-03-08T00:17:36;19.43;;;14.57;;
10277;SDS011;5184;51.376;7.148;2024-03-08T00:20:03;22.33;;;14.83;;
10277;SDS011;5184;51.376;7.148;2024-03-08T00:22:30;22.97;;;14.83;;
10277;SDS011;5184;51.376;7.148;2024-03-08T00:24:57;22.60;;;14.90;;
10277;SDS011;5184;51.376;7.148;2024-03-08T00:27:24;25.20;;;16.10;;
10277;SDS011;5184;51.376;7.148;2024-03-08T00:29:51;22.63;;;15.30;;
10277;SDS011;5184;51.376;7.148;2024-03-08T00:32:18;21.60;;;15.47;;
10277;SDS011;5184;51.376;7.148;2024-03-08T00:34:44;21.67;;;15.00;;
10277;SDS011;5184;51.376;7.148;2024-03-08T00:37:11;22.57;;;15.33;;
10277;SDS011;5184;51.376;7.148;2024-03-08T00:39:37;24.90;;;16.57;;
10277;SDS011;5184;51.376;7.148;2024-03-08T00:42:04;21.87;;;15.73;;
10277;SDS011;5184;51.376;7.148;2024-03-08T00:44:31;20.83;;;15.13;;
10277;SDS011;5184;51.376;7.148;2024-03-08T00:46:57;21.60;;;15.03;;
10277;SDS011;5184;51.376;7.148;2024-03-08T00:49:24;21.23;;;14.87;;
10277;SDS011;5184;51.376;7.148;2024-03-08T00:51:50;19.63;;;14.13;;
10277;SDS011;5184;51.376;7.148;2024-03-08T00:54:18;19.70;;;14.73;;
10277;SDS011;5184;51.376;7.148;2024-03-08T00:56:45;22.77;;;15.10;;
10277;SDS011;5184;51.376;7.148;2024-03-08T00:59:12;24.93;;;15.33;;
10277;SDS011;5184;51.376;7.148;2024-03-08T01:01:38;24.20;;;15.87;;
10277;SDS011;5184;51.376;7.148;2024-03-08T01:04:05;24.47;;;16.83;;
10277;SDS011;5184;51.376;7.148;2024-03-08T01:06:32;22.13;;;15.70;;
10277;SDS011;5184;51.376;7.148;2024-03-08T01:08:58;25.10;;;15.33;;
10277;SDS011;5184;51.376;7.148;2024-03-08T01:11:25;22.37;;;15.60;;
10277;SDS011;5184;51.376;7.148;2024-03-08T01:13:51;21.83;;;15.70;;
10277;SDS011;5184;51.376;7.148;2024-03-08T01:16:18;25.73;;;15.57;;
10277;SDS011;5184;51.376;7.148;2024-03-08T01:18:45;26.23;;;16.70;;
10277;SDS011;5184;51.376;7.148;2024-03-08T01:21:11;24.77;;;15.97;;
10277;SDS011;5184;51.376;7.148;2024-03-08T01:23:38;22.33;;;15.90;;
10277;SDS011;5184;51.376;7.148;2024-03-08T01:26:04;25.43;;;16.30;;
10277;SDS011;5184;51.376;7.148;2024-03-08T01:28:31;24.57;;;16.10;;
10277;SDS011;5184;51.376;7.148;2024-03-08T01:30:58;24.73;;;16.23;;
10277;SDS011;5184;51.376;7.148;2024-03-08T01:33:25;23.67;;;16.10;;
10277;SDS011;5184;51.376;7.148;2024-03-08T01:35:52;25.20;;;16.70;;
10277;SDS011;5184;51.376;7.148;2024-03-08T01:38:18;24.80;;;15.77;;
10277;SDS011;5184;51.376;7.148;2024-03-08T01:40:45;21.83;;;15.53;;
10277;SDS011;5184;51.376;7.148;2024-03-08T01:45:48;22.67;;;16.37;;
10277;SDS011;5184;51.376;7.148;2024-03-08T01:48:15;25.80;;;16.07;;
10277;SDS011;5184;51.376;7.148;2024-03-08T01:50:41;22.30;;;15.73;;
10277;SDS011;5184;51.376;7.148;2024-03-08T01:53:07;21.53;;;15.77;;
10277;SDS011;5184;51.376;7.148;2024-03-08T01:55:34;22.77;;;15.83;;
10277;SDS011;5184;51.376;7.148;2024-03-08T01:58:00;22.10;;;15.83;;
10277;SDS011;5184;51.376;7.148;2024-03-08T02:00:28;25.07;;;15.87;;
10277;SDS011;5184;51.376;7.148;2024-03-08T02:02:55;24.43;;;16.53;;
10277;SDS011;5184;51.376;7.148;2024-03-08T02:05:22;23.53;;;15.67;;
10277;SDS011;5184;51.376;7.148;2024-03-08T02:07:49;22.70;;;16.03;;
10277;SDS011;5184;51.376;7.148;2024-03-08T02:10:16;23.80;;;16.27;;
10277;SDS011;5184;51.376;7.148;2024-03-08T02:12:43;24.43;;;15.80;;
10277;SDS011;5184;51.376;7.148;2024-03-08T02:15:09;24.60;;;15.90;;
10277;SDS011;5184;51.376;7.148;2024-03-08T02:17:36;25.13;;;16.30;;
10277;SDS011;5184;51.376;7.148;2024-03-08T02:20:03;26.33;;;16.50;;
10277;SDS011;5184;51.376;7.148;2024-03-08T02:22:30;28.93;;;15.97;;
10277;SDS011;5184;51.376;7.148;2024-03-08T02:24:58;27.77;;;17.93;;
10277;SDS011;5184;51.376;7.148;2024-03-08T02:27:24;26.63;;;16.67;;
10277;SDS011;5184;51.376;7.148;2024-03-08T02:29:50;29.00;;;17.30;;
10277;SDS011;5184;51.376;7.148;2024-03-08T02:32:17;25.83;;;16.33;;
10277;SDS011;5184;51.376;7.148;2024-03-08T02:34:43;22.47;;;15.67;;
10277;SDS011;5184;51.376;7.148;2024-03-08T02:37:10;23.80;;;15.83;;
10277;SDS011;5184;51.376;7.148;2024-03-08T02:39:37;24.93;;;16.60;;
10277;SDS011;5184;51.376;7.148;2024-03-08T02:42:05;26.23;;;16.27;;
10277;SDS011;5184;51.376;7.148;2024-03-08T02:44:32;24.70;;;16.80;;
10277;SDS011;5184;51.376;7.148;2024-03-08T02:47:00;26.57;;;16.97;;
10277;SDS011;5184;51.376;7.148;2024-03-08T02:49:26;24.30;;;16.73;;
10277;SDS011;5184;51.376;7.148;2024-03-08T02:51:53;27.93;;;17.37;;
10277;SDS011;5184;51.376;7.148;2024-03-08T02:54:19;24.77;;;16.03;;
10277;SDS011;5184;51.376;7.148;2024-03-08T02:56:46;25.97;;;16.80;;
10277;SDS011;5184;51.376;7.148;2024-03-08T02:59:13;27.17;;;17.30;;
10277;SDS011;5184;51.376;7.148;2024-03-08T03:01:39;29.40;;;18.13;;
10277;SDS011;5184;51.376;7.148;2024-03-08T03:04:06;25.67;;;16.67;;
10277;SDS011;5184;51.376;7.148;2024-03-08T03:06:33;25.50;;;17.37;;
10277;SDS011;5184;51.376;7.148;2024-03-08T03:09:01;28.27;;;17.23;;
10277;SDS011;5184;51.376;7.148;2024-03-08T03:11:27;27.93;;;17.80;;
10277;SDS011;5184;51.376;7.148;2024-03-08T03:13:54;27.93;;;18.03;;
10277;SDS011;5184;51.376;7.148;2024-03-08T03:16:20;28.80;;;18.17;;
10277;SDS011;5184;51.376;7.148;2024-03-08T03:18:48;27.17;;;17.77;;
10277;SDS011;5184;51.376;7.148;2024-03-08T03:21:15;30.17;;;19.90;;
10277;SDS011;5184;51.376;7.148;2024-03-08T03:23:42;28.37;;;17.90;;
10277;SDS011;5184;51.376;7.148;2024-03-08T03:26:08;28.50;;;16.77;;
10277;SDS011;5184;51.376;7.148;2024-03-08T03:28:37;30.37;;;18.47;;
10277;SDS011;5184;51.376;7.148;2024-03-08T03:31:06;27.70;;;17.20;;
10277;SDS011;5184;51.376;7.148;2024-03-08T03:33:33;30.23;;;17.90;;
10277;SDS011;5184;51.376;7.148;2024-03-08T03:36:01;30.57;;;18.03;;
10277;SDS011;5184;51.376;7.148;2024-03-08T03:38:28;24.63;;;17.20;;
10277;SDS011;5184;51.376;7.148;2024-03-08T03:40:54;32.30;;;17.80;;
10277;SDS011;5184;51.376;7.148;2024-03-08T03:43:21;28.60;;;16.97;;
10277;SDS011;5184;51.376;7.148;2024-03-08T03:45:48;29.43;;;17.93;;
10277;SDS011;5184;51.376;7.148;2024-03-08T03:48:15;28.93;;;17.90;;
10277;SDS011;5184;51.376;7.148;2024-03-08T03:50:42;29.67;;;17.90;;
10277;SDS011;5184;51.376;7.148;2024-03-08T03:53:09;29.67;;;19.20;;
10277;SDS011;5184;51.376;7.148;2024-03-08T03:55:35;28.57;;;18.13;;
10277;SDS011;5184;51.376;7.148;2024-03-08T03:58:03;30.47;;;18.70;;
10277;SDS011;5184;51.376;7.148;2024-03-08T04:00:29;29.00;;;17.87;;
10277;SDS011;5184;51.376;7.148;2024-03-08T04:02:56;28.17;;;17.60;;
10277;SDS011;5184;51.376;7.148;2024-03-08T04:05:23;26.73;;;16.93;;
10277;SDS011;5184;51.376;7.148;2024-03-08T04:07:50;31.30;;;18.17;;
10277;SDS011;5184;51.376;7.148;2024-03-08T04:10:16;29.77;;;18.03;;
10277;SDS011;5184;51.376;7.148;2024-03-08T04:12:45;29.30;;;18.30;;
10277;SDS011;5184;51.376;7.148;2024-03-08T04:15:11;28.03;;;17.43;;
10277;SDS011;5184;51.376;7.148;2024-03-08T04:17:39;31.97;;;18.30;;
10277;SDS011;5184;51.376;7.148;2024-03-08T04:20:05;31.30;;;18.87;;
10277;SDS011;5184;51.376;7.148;2024-03-08T04:22:34;30.40;;;18.30;;
10277;SDS011;5184;51.376;7.148;2024-03-08T04:25:02;28.83;;;18.60;;
10277;SDS011;5184;51.376;7.148;2024-03-08T04:27:28;31.90;;;18.63;;
10277;SDS011;5184;51.376;7.148;2024-03-08T04:29:54;29.23;;;17.03;;
10277;SDS011;5184;51.376;7.148;2024-03-08T04:32:21;30.40;;;18.67;;
10277;SDS011;5184;51.376;7.148;2024-03-08T04:34:48;30.90;;;19.23;;
10277;SDS011;5184;51.376;7.148;2024-03-08T04:37:15;30.83;;;18.13;;
10277;SDS011;5184;51.376;7.148;2024-03-08T04:39:42;30.43;;;18.03;;
10277;SDS011;5184;51.376;7.148;2024-03-08T04:42:08;33.93;;;18.80;;
10277;SDS011;5184;51.376;7.148;2024-03-08T04:44:35;32.80;;;17.40;;
10277;SDS011;5184;51.376;7.148;2024-03-08T04:47:01;30.17;;;18.97;;
10277;SDS011;5184;51.376;7.148;2024-03-08T04:49:28;29.33;;;17.77;;
10277;SDS011;5184;51.376;7.148;2024-03-08T04:51:55;33.67;;;18.57;;
10277;SDS011;5184;51.376;7.148;2024-03-08T04:54:22;27.73;;;17.93;;
10277;SDS011;5184;51.376;7.148;2024-03-08T04:56:48;34.03;;;18.67;;
10277;SDS011;5184;51.376;7.148;2024-03-08T04:59:16;30.27;;;17.93;;
10277;SDS011;5184;51.376;7.148;2024-03-08T05:01:42;27.40;;;16.47;;
10277;SDS011;5184;51.376;7.148;2024-03-08T05:04:09;29.53;;;17.20;;
10277;SDS011;5184;51.376;7.148;2024-03-08T05:06:36;28.23;;;17.80;;
10277;SDS011;5184;51.376;7.148;2024-03-08T05:09:02;32.53;;;19.23;;
10277;SDS011;5184;51.376;7.148;2024-03-08T05:11:31;31.00;;;17.93;;
10277;SDS011;5184;51.376;7.148;2024-03-08T05:13:58;29.63;;;18.03;;
10277;SDS011;5184;51.376;7.148;2024-03-08T05:16:25;30.83;;;18.20;;
10277;SDS011;5184;51.376;7.148;2024-03-08T05:18:51;34.70;;;18.03;;
10277;SDS011;5184;51.376;7.148;2024-03-08T05:21:18;29.87;;;17.57;;
10277;SDS011;5184;51.376;7.148;2024-03-08T05:23:44;31.77;;;18.93;;
10277;SDS011;5184;51.376;7.148;2024-03-08T05:26:12;32.17;;;18.57;;
10277;SDS011;5184;51.376;7.148;2024-03-08T05:28:39;29.63;;;18.30;;
10277;SDS011;5184;51.376;7.148;2024-03-08T05:31:06;33.30;;;19.60;;
10277;SDS011;5184;51.376;7.148;2024-03-08T05:33:33;36.97;;;19.23;;
10277;SDS011;5184;51.376;7.148;2024-03-08T05:36:00;30.27;;;17.90;;
10277;SDS011;5184;51.376;7.148;2024-03-08T05:38:27;30.90;;;19.30;;
10277;SDS011;5184;51.376;7.148;2024-03-08T05:40:54;30.53;;;17.37;;
10277;SDS011;5184;51.376;7.148;2024-03-08T05:43:21;30.20;;;18.13;;
10277;SDS011;5184;51.376;7.148;2024-03-08T05:45:47;31.57;;;17.67;;
10277;SDS011;5184;51.376;7.148;2024-03-08T05:48:14;32.90;;;19.17;;
10277;SDS011;5184;51.376;7.148;2024-03-08T05:50:41;33.40;;;18.50;;
10277;SDS011;5184;51.376;7.148;2024-03-08T05:53:07;33.63;;;19.33;;
10277;SDS011;5184;51.376;7.148;2024-03-08T05:55:35;32.83;;;18.60;;
10277;SDS011;5184;51.376;7.148;2024-03-08T05:58:01;32.80;;;18.77;;
10277;SDS011;5184;51.376;7.148;2024-03-08T06:00:28;31.93;;;18.73;;
10277;SDS011;5184;51.376;7.148;2024-03-08T06:02:54;32.47;;;18.97;;
10277;SDS011;5184;51.376;7.148;2024-03-08T06:05:22;32.03;;;19.20;;
10277;SDS011;5184;51.376;7.148;2024-03-08T06:07:49;31.87;;;17.83;;
10277;SDS011;5184;51.376;7.148;2024-03-08T06:10:15;33.13;;;18.50;;
10277;SDS011;5184;51.376;7.148;2024-03-08T06:12:43;34.47;;;18.30;;
10277;SDS011;5184;51.376;7.148;2024-03-08T06:15:10;31.23;;;19.20;;
10277;SDS011;5184;51.376;7.148;2024-03-08T06:17:39;33.10;;;19.20;;
10277;SDS011;5184;51.376;7.148;2024-03-08T06:20:06;31.57;;;17.83;;
10277;SDS011;5184;51.376;7.148;2024-03-08T06:22:33;31.57;;;18.50;;
10277;SDS011;5184;51.376;7.148;2024-03-08T06:25:00;34.73;;;18.77;;
10277;SDS011;5184;51.376;7.148;2024-03-08T06:27:27;31.70;;;18.23;;
10277;SDS011;5184;51.376;7.148;2024-03-08T06:29:53;31.73;;;18.13;;
10277;SDS011;5184;51.376;7.148;2024-03-08T06:32:20;31.23;;;18.97;;
10277;SDS011;5184;51.376;7.148;2024-03-08T06:34:46;33.93;;;17.93;;
10277;SDS011;5184;51.376;7.148;2024-03-08T06:37:13;28.77;;;16.77;;
10277;SDS011;5184;51.376;7.148;2024-03-08T06:39:40;31.30;;;17.57;;
10277;SDS011;5184;51.376;7.148;2024-03-08T06:42:07;30.30;;;18.33;;
10277;SDS011;5184;51.376;7.148;2024-03-08T06:44:35;32.60;;;18.23;;
10277;SDS011;5184;51.376;7.148;2024-03-08T06:47:01;33.63;;;18.37;;
10277;SDS011;5184;51.376;7.148;2024-03-08T06:49:29;28.93;;;17.47;;
10277;SDS011;5184;51.376;7.148;2024-03-08T06:51:55;33.50;;;17.97;;
10277;SDS011;5184;51.376;7.148;2024-03-08T06:54:22;29.97;;;17.87;;
10277;SDS011;5184;51.376;7.148;2024-03-08T06:56:49;30.47;;;17.70;;
10277;SDS011;5184;51.376;7.148;2024-03-08T06:59:16;30.83;;;18.97;;
10277;SDS011;5184;51.376;7.148;2024-03-08T07:01:42;30.77;;;18.67;;
10277;SDS011;5184;51.376;7.148;2024-03-08T07:04:09;33.07;;;17.93;;
10277;SDS011;5184;51.376;7.148;2024-03-08T07:06:36;33.30;;;18.73;;
10277;SDS011;5184;51.376;7.148;2024-03-08T07:09:02;31.77;;;17.77;;
10277;SDS011;5184;51.376;7.148;2024-03-08T07:11:29;29.07;;;16.87;;
10277;SDS011;5184;51.376;7.148;2024-03-08T07:13:55;32.50;;;18.60;;
10277;SDS011;5184;51.376;7.148;2024-03-08T07:16:22;31.77;;;19.23;;
10277;SDS011;5184;51.376;7.148;2024-03-08T07:18:49;31.03;;;19.17;;
10277;SDS011;5184;51.376;7.148;2024-03-08T07:21:15;31.53;;;18.27;;
10277;SDS011;5184;51.376;7.148;2024-03-08T07:23:42;31.40;;;18.83;;
10277;SDS011;5184;51.376;7.148;2024-03-08T07:26:15;35.03;;;18.93;;
10277;SDS011;5184;51.376;7.148;2024-03-08T07:28:42;31.53;;;18.07;;
10277;SDS011;5184;51.376;7.148;2024-03-08T07:31:09;29.87;;;18.87;;
10277;SDS011;5184;51.376;7.148;2024-03-08T07:33:38;30.43;;;17.70;;
10277;SDS011;5184;51.376;7.148;2024-03-08T07:36:05;34.30;;;18.33;;
10277;SDS011;5184;51.376;7.148;2024-03-08T07:38:31;31.13;;;18.80;;
10277;SDS011;5184;51.376;7.148;2024-03-08T07:40:58;32.00;;;19.17;;
10277;SDS011;5184;51.376;7.148;2024-03-08T07:43:25;30.67;;;18.67;;
10277;SDS011;5184;51.376;7.148;2024-03-08T07:45:51;31.40;;;18.07;;
10277;SDS011;5184;51.376;7.148;2024-03-08T07:48:18;32.60;;;17.93;;
10277;SDS011;5184;51.376;7.148;2024-03-08T07:50:44;32.63;;;19.57;;
10277;SDS011;5184;51.376;7.148;2024-03-08T07:53:11;30.90;;;18.83;;
10277;SDS011;5184;51.376;7.148;2024-03-08T07:55:38;43.03;;;20.17;;
10277;SDS011;5184;51.376;7.148;2024-03-08T07:58:04;32.93;;;18.83;;
10277;SDS011;5184;51.376;7.148;2024-03-08T08:00:31;29.13;;;17.83;;
10277;SDS011;5184;51.376;7.148;2024-03-08T08:02:57;30.83;;;18.07;;
10277;SDS011;5184;51.376;7.148;2024-03-08T08:05:24;32.93;;;19.37;;
10277;SDS011;5184;51.376;7.148;2024-03-08T08:07:51;32.93;;;18.53;;
10277;SDS011;5184;51.376;7.148;2024-03-08T08:10:18;32.03;;;20.03;;
10277;SDS011;5184;51.376;7.148;2024-03-08T08:12:47;31.73;;;19.47;;
10277;SDS011;5184;51.376;7.148;2024-03-08T08:15:14;28.97;;;18.87;;
10277;SDS011;5184;51.376;7.148;2024-03-08T08:17:42;32.30;;;19.50;;
10277;SDS011;5184;51.376;7.148;2024-03-08T08:20:10;29.50;;;18.80;;
10277;SDS011;5184;51.376;7.148;2024-03-08T08:22:37;33.27;;;19.80;;
10277;SDS011;5184;51.376;7.148;2024-03-08T08:25:03;35.53;;;19.17;;
10277;SDS011;5184;51.376;7.148;2024-03-08T08:27:29;31.57;;;18.37;;
10277;SDS011;5184;51.376;7.148;2024-03-08T08:29:56;29.30;;;18.53;;
10277;SDS011;5184;51.376;7.148;2024-03-08T08:32:23;33.13;;;18.97;;
10277;SDS011;5184;51.376;7.148;2024-03-08T08:34:49;30.77;;;18.13;;
10277;SDS011;5184;51.376;7.148;2024-03-08T08:37:16;30.20;;;18.83;;
10277;SDS011;5184;51.376;7.148;2024-03-08T08:39:42;31.60;;;18.87;;
10277;SDS011;5184;51.376;7.148;2024-03-08T08:42:10;26.10;;;17.07;;
10277;SDS011;5184;51.376;7.148;2024-03-08T08:44:37;31.37;;;18.53;;
10277;SDS011;5184;51.376;7.148;2024-03-08T08:47:04;30.23;;;18.17;;
10277;SDS011;5184;51.376;7.148;2024-03-08T08:49:30;26.47;;;17.07;;
10277;SDS011;5184;51.376;7.148;2024-03-08T08:51:57;28.03;;;18.07;;
10277;SDS011;5184;51.376;7.148;2024-03-08T08:54:24;26.97;;;17.17;;
10277;SDS011;5184;51.376;7.148;2024-03-08T08:56:50;27.07;;;16.43;;
10277;SDS011;5184;51.376;7.148;2024-03-08T08:59:17;26.37;;;16.60;;
10277;SDS011;5184;51.376;7.148;2024-03-08T09:01:46;25.00;;;17.47;;
10277;SDS011;5184;51.376;7.148;2024-03-08T09:04:13;28.50;;;16.93;;
10277;SDS011;5184;51.376;7.148;2024-03-08T09:06:41;24.33;;;16.07;;
10277;SDS011;5184;51.376;7.148;2024-03-08T09:09:07;25.50;;;16.63;;
10277;SDS011;5184;51.376;7.148;2024-03-08T09:11:35;28.00;;;17.17;;
10277;SDS011;5184;51.376;7.148;2024-03-08T09:14:01;23.43;;;15.93;;
10277;SDS011;5184;51.376;7.148;2024-03-08T09:16:28;28.43;;;16.63;;
10277;SDS011;5184;51.376;7.148;2024-03-08T09:18:55;25.83;;;17.00;;
10277;SDS011;5184;51.376;7.148;2024-03-08T09:21:23;24.43;;;16.00;;
10277;SDS011;5184;51.376;7.148;2024-03-08T09:23:50;25.57;;;15.87;;
10277;SDS011;5184;51.376;7.148;2024-03-08T09:26:17;24.67;;;16.30;;
10277;SDS011;5184;51.376;7.148;2024-03-08T09:28:44;23.07;;;15.00;;
10277;SDS011;5184;51.376;7.148;2024-03-08T09:31:11;24.53;;;15.50;;
10277;SDS011;5184;51.376;7.148;2024-03-08T09:33:37;23.10;;;16.60;;
10277;SDS011;5184;51.376;7.148;2024-03-08T09:36:05;22.60;;;15.30;;
10277;SDS011;5184;51.376;7.148;2024-03-08T09:38:32;26.10;;;16.70;;
10277;SDS011;5184;51.376;7.148;2024-03-08T09:40:58;24.93;;;15.50;;
10277;SDS011;5184;51.376;7.148;2024-03-08T09:43:25;21.10;;;14.17;;
10277;SDS011;5184;51.376;7.148;2024-03-08T09:45:51;73.57;;;29.93;;
10277;SDS011;5184;51.376;7.148;2024-03-08T09:48:18;23.70;;;15.90;;
10277;SDS011;5184;51.376;7.148;2024-03-08T09:50:45;22.93;;;15.90;;
10277;SDS011;5184;51.376;7.148;2024-03-08T09:53:11;22.57;;;15.67;;
10277;SDS011;5184;51.376;7.148;2024-03-08T09:55:38;22.53;;;15.37;;
10277;SDS011;5184;51.376;7.148;2024-03-08T09:58:07;23.73;;;15.43;;
10277;SDS011;5184;51.376;7.148;2024-03-08T10:00:39;23.07;;;15.47;;
10277;SDS011;5184;51.376;7.148;2024-03-08T10:03:05;22.33;;;14.10;;
10277;SDS011;5184;51.376;7.148;2024-03-08T10:05:33;22.97;;;15.70;;
10277;SDS011;5184;51.376;7.148;2024-03-08T10:08:00;24.47;;;15.73;;
10277;SDS011;5184;51.376;7.148;2024-03-08T10:10:27;20.63;;;15.50;;
10277;SDS011;5184;51.376;7.148;2024-03-08T10:12:53;22.13;;;15.80;;
10277;SDS011;5184;51.376;7.148;2024-03-08T10:15:21;22.57;;;15.43;;
10277;SDS011;5184;51.376;7.148;2024-03-08T10:17:47;23.43;;;15.90;;
10277;SDS011;5184;51.376;7.148;2024-03-08T10:20:14;20.87;;;14.70;;
10277;SDS011;5184;51.376;7.148;2024-03-08T10:22:41;20.37;;;15.07;;
10277;SDS011;5184;51.376;7.148;2024-03-08T10:25:10;21.60;;;14.80;;
10277;SDS011;5184;51.376;7.148;2024-03-08T10:27:36;22.33;;;14.50;;
10277;SDS011;5184;51.376;7.148;2024-03-08T10:30:04;22.03;;;15.13;;
10277;SDS011;5184;51.376;7.148;2024-03-08T10:32:30;22.33;;;15.83;;
10277;SDS011;5184;51.376;7.148;2024-03-08T10:34:56;22.23;;;14.63;;
10277;SDS011;5184;51.376;7.148;2024-03-08T10:37:23;18.87;;;14.67;;
10277;SDS011;5184;51.376;7.148;2024-03-08T10:40:00;20.83;;;14.47;;
10277;SDS011;5184;51.376;7.148;2024-03-08T10:42:28;19.90;;;14.00;;
10277;SDS011;5184;51.376;7.148;2024-03-08T10:44:58;17.57;;;13.17;;
10277;SDS011;5184;51.376;7.148;2024-03-08T10:47:35;17.27;;;11.82;;
10277;SDS011;5184;51.376;7.148;2024-03-08T10:50:08;17.27;;;12.17;;
10277;SDS011;5184;51.376;7.148;2024-03-08T10:52:49;16.17;;;11.63;;
10277;SDS011;5184;51.376;7.148;2024-03-08T10:55:15;15.47;;;11.40;;
10277;SDS011;5184;51.376;7.148;2024-03-08T10:57:41;17.67;;;11.83;;
10277;SDS011;5184;51.376;7.148;2024-03-08T11:00:08;14.20;;;10.63;;
10277;SDS011;5184;51.376;7.148;2024-03-08T11:02:36;14.30;;;10.50;;
10277;SDS011;5184;51.376;7.148;2024-03-08T11:05:03;15.50;;;9.93;;
10277;SDS011;5184;51.376;7.148;2024-03-08T11:07:34;16.63;;;10.30;;
10277;SDS011;5184;51.376;7.148;2024-03-08T11:10:02;14.87;;;10.20;;
10277;SDS011;5184;51.376;7.148;2024-03-08T11:12:35;14.47;;;10.27;;
10277;SDS011;5184;51.376;7.148;2024-03-08T11:15:00;13.60;;;10.43;;
10277;SDS011;5184;51.376;7.148;2024-03-08T11:20:12;12.43;;;9.40;;
10277;SDS011;5184;51.376;7.148;2024-03-08T11:22:48;12.53;;;10.10;;
10277;SDS011;5184;51.376;7.148;2024-03-08T11:25:47;13.37;;;9.47;;
10277;SDS011;5184;51.376;7.148;2024-03-08T11:31:22;12.73;;;10.00;;
10277;SDS011;5184;51.376;7.148;2024-03-08T11:33:49;14.00;;;9.97;;
10277;SDS011;5184;51.376;7.148;2024-03-08T11:36:20;11.87;;;9.27;;
10277;SDS011;5184;51.376;7.148;2024-03-08T11:38:46;12.43;;;9.57;;
10277;SDS011;5184;51.376;7.148;2024-03-08T11:41:13;11.43;;;9.07;;
10277;SDS011;5184;51.376;7.148;2024-03-08T11:43:40;11.60;;;9.10;;
10277;SDS011;5184;51.376;7.148;2024-03-08T11:46:09;11.47;;;8.90;;
10277;SDS011;5184;51.376;7.148;2024-03-08T11:48:35;11.57;;;8.53;;
10277;SDS011;5184;51.376;7.148;2024-03-08T11:51:02;10.17;;;7.73;;
10277;SDS011;5184;51.376;7.148;2024-03-08T11:53:29;11.47;;;8.50;;
10277;SDS011;5184;51.376;7.148;2024-03-08T11:56:05;11.30;;;8.20;;
10277;SDS011;5184;51.376;7.148;2024-03-08T11:58:23;10.70;;;8.53;;
10277;SDS011;5184;51.376;7.148;2024-03-08T12:00:49;9.53;;;7.27;;
10277;SDS011;5184;51.376;7.148;2024-03-08T12:03:16;10.30;;;8.10;;
10277;SDS011;5184;51.376;7.148;2024-03-08T12:05:42;10.33;;;8.27;;
10277;SDS011;5184;51.376;7.148;2024-03-08T12:08:09;10.70;;;8.50;;
10277;SDS011;5184;51.376;7.148;2024-03-08T12:10:35;10.70;;;8.00;;
10277;SDS011;5184;51.376;7.148;2024-03-08T12:13:02;10.60;;;8.30;;
10277;SDS011;5184;51.376;7.148;2024-03-08T12:15:29;11.77;;;8.50;;
10277;SDS011;5184;51.376;7.148;2024-03-08T12:17:55;10.53;;;8.17;;
10277;SDS011;5184;51.376;7.148;2024-03-08T12:20:24;9.23;;;7.80;;
10277;SDS011;5184;51.376;7.148;2024-03-08T12:22:53;9.17;;;7.33;;
10277;SDS011;5184;51.376;7.148;2024-03-08T12:25:19;10.23;;;7.37;;
10277;SDS011;5184;51.376;7.148;2024-03-08T12:27:46;9.37;;;7.40;;
10277;SDS011;5184;51.376;7.148;2024-03-08T12:30:16;10.97;;;8.07;;
10277;SDS011;5184;51.376;7.148;2024-03-08T12:33:01;9.33;;;7.40;;
10277;SDS011;5184;51.376;7.148;2024-03-08T12:35:28;9.07;;;7.30;;
10277;SDS011;5184;51.376;7.148;2024-03-08T12:37:55;8.03;;;6.73;;
10277;SDS011;5184;51.376;7.148;2024-03-08T12:40:27;9.80;;;7.00;;
10277;SDS011;5184;51.376;7.148;2024-03-08T12:42:55;9.53;;;7.70;;
10277;SDS011;5184;51.376;7.148;2024-03-08T12:45:22;10.73;;;8.30;;
10277;SDS011;5184;51.376;7.148;2024-03-08T12:47:48;10.87;;;8.30;;
10277;SDS011;5184;51.376;7.148;2024-03-08T12:50:15;10.13;;;8.33;;
10277;SDS011;5184;51.376;7.148;2024-03-08T12:52:41;8.57;;;7.33;;
10277;SDS011;5184;51.376;7.148;2024-03-08T12:55:08;9.87;;;7.47;;
10277;SDS011;5184;51.376;7.148;2024-03-08T12:57:35;11.47;;;8.13;;
10277;SDS011;5184;51.376;7.148;2024-03-08T13:00:02;8.23;;;7.33;;
10277;SDS011;5184;51.376;7.148;2024-03-08T13:02:28;9.43;;;7.67;;
10277;SDS011;5184;51.376;7.148;2024-03-08T13:04:55;8.87;;;7.33;;
10277;SDS011;5184;51.376;7.148;2024-03-08T13:07:23;9.73;;;7.20;;
10277;SDS011;5184;51.376;7.148;2024-03-08T13:09:50;9.47;;;7.40;;
10277;SDS011;5184;51.376;7.148;2024-03-08T13:12:16;8.63;;;6.97;;
10277;SDS011;5184;51.376;7.148;2024-03-08T13:14:43;8.47;;;6.10;;
10277;SDS011;5184;51.376;7.148;2024-03-08T13:17:10;8.60;;;6.57;;
10277;SDS011;5184;51.376;7.148;2024-03-08T13:19:36;7.83;;;6.37;;
10277;SDS011;5184;51.376;7.148;2024-03-08T13:22:03;11.17;;;7.27;;
10277;SDS011;5184;51.376;7.148;2024-03-08T13:24:30;8.93;;;7.00;;
10277;SDS011;5184;51.376;7.148;2024-03-08T13:26:57;10.90;;;7.80;;
10277;SDS011;5184;51.376;7.148;2024-03-08T13:29:25;8.87;;;7.73;;
10277;SDS011;5184;51.376;7.148;2024-03-08T13:31:52;8.67;;;6.77;;
10277;SDS011;5184;51.376;7.148;2024-03-08T13:34:19;8.77;;;6.67;;
10277;SDS011;5184;51.376;7.148;2024-03-08T13:36:47;10.10;;;7.17;;
10277;SDS011;5184;51.376;7.148;2024-03-08T13:39:14;8.27;;;6.60;;
10277;SDS011;5184;51.376;7.148;2024-03-08T13:41:42;10.63;;;7.13;;
10277;SDS011;5184;51.376;7.148;2024-03-08T13:44:08;8.70;;;6.97;;
10277;SDS011;5184;51.376;7.148;2024-03-08T13:46:35;9.27;;;6.13;;
10277;SDS011;5184;51.376;7.148;2024-03-08T13:49:03;10.10;;;6.73;;
10277;SDS011;5184;51.376;7.148;2024-03-08T13:51:29;8.07;;;6.77;;
10277;SDS011;5184;51.376;7.148;2024-03-08T13:53:55;8.33;;;6.63;;
10277;SDS011;5184;51.376;7.148;2024-03-08T13:56:22;7.63;;;6.60;;
10277;SDS011;5184;51.376;7.148;2024-03-08T13:58:49;8.77;;;6.87;;
10277;SDS011;5184;51.376;7.148;2024-03-08T14:01:15;9.93;;;7.40;;
10277;SDS011;5184;51.376;7.148;2024-03-08T14:03:42;8.23;;;7.10;;
10277;SDS011;5184;51.376;7.148;2024-03-08T14:06:09;8.83;;;7.20;;
10277;SDS011;5184;51.376;7.148;2024-03-08T14:08:36;10.33;;;7.23;;
10277;SDS011;5184;51.376;7.148;2024-03-08T14:11:02;9.23;;;7.07;;
10277;SDS011;5184;51.376;7.148;2024-03-08T14:13:30;11.37;;;7.50;;
10277;SDS011;5184;51.376;7.148;2024-03-08T14:15:57;10.37;;;8.17;;
10277;SDS011;5184;51.376;7.148;2024-03-08T14:18:25;8.27;;;7.00;;
10277;SDS011;5184;51.376;7.148;2024-03-08T14:20:52;9.87;;;7.67;;
10277;SDS011;5184;51.376;7.148;2024-03-08T14:23:19;11.30;;;7.07;;
10277;SDS011;5184;51.376;7.148;2024-03-08T14:25:45;9.73;;;7.80;;
10277;SDS011;5184;51.376;7.148;2024-03-08T14:28:12;9.33;;;7.40;;
10277;SDS011;5184;51.376;7.148;2024-03-08T14:30:38;9.20;;;7.37;;
10277;SDS011;5184;51.376;7.148;2024-03-08T14:33:05;11.07;;;8.07;;
10277;SDS011;5184;51.376;7.148;2024-03-08T14:35:32;11.03;;;8.07;;
10277;SDS011;5184;51.376;7.148;2024-03-08T14:37:58;11.40;;;8.20;;
10277;SDS011;5184;51.376;7.148;2024-03-08T14:40:26;11.97;;;8.70;;
10277;SDS011;5184;51.376;7.148;2024-03-08T14:42:53;11.10;;;8.63;;
10277;SDS011;5184;51.376;7.148;2024-03-08T14:45:20;12.27;;;8.93;;